sensor_id;sensor_type;location;lat;lon;timestamp;pressure;altitude;pressure_sealevel;temperature;humidity
3668;BME280;24099;47.102;15.440;2023-03-23T00:00:27;96801.47;;;5.90;100.00
3668;BME280;24099;47.102;15.440;2023-03-23T00:02:56;96803.94;;;5.99;100.00
3668;BME280;24099;47.102;15.440;2023-03-23T00:05:27;96791.88;;;5.98;100.00
3668;BME280;24099;47.102;15.440;2023-03-23T00:07:56;96801.00;;;5.94;100.00
3668;BME280;24099;47.102;15.440;2023-03-23T00:10:25;96796.34;;;5.64;100.00
3668;BME280;24099;47.102;15.440;2023-03-23T00:12:53;96799.63;;;5.66;100.00
3668;BME280;24099;47.102;15.440;2023-03-23T00:15:23;96790.66;;;5.68;100.00
3668;BME280;24099;47.102;15.440;2023-03-23T00:17:53;96793.75;;;5.80;100.00
3668;BME280;24099;47.102;15.440;2023-03-23T00:20:28;96785.44;;;5.84;100.00
3668;BME280;24099;47.102;15.440;2023-03-23T00:22:56;96788.53;;;5.72;100.00
3668;BME280;24099;47.102;15.440;2023-03-23T00:25:28;96792.91;;;5.55;100.00
3668;BME280;24099;47.102;15.440;2023-03-23T00:27:58;96791.44;;;5.61;100.00
3668;BME280;24099;47.102;15.440;2023-03-23T00:30:26;96798.97;;;5.72;100.00
3668;BME280;24099;47.102;15.440;2023-03-23T00:32:57;96795.66;;;5.37;100.00
3668;BME280;24099;47.102;15.440;2023-03-23T00:35:28;96791.25;;;5.38;100.00
3668;BME280;24099;47.102;15.440;2023-03-23T00:37:56;96787.97;;;5.44;100.00
3668;BME280;24099;47.102;15.440;2023-03-23T00:40:26;96784.88;;;5.40;100.00
3668;BME280;24099;47.102;15.440;2023-03-23T00:42:54;96789.13;;;5.49;100.00
3668;BME280;24099;47.102;15.440;2023-03-23T00:45:24;96794.19;;;5.51;100.00
3668;BME280;24099;47.102;15.440;2023-03-23T00:47:52;96790.28;;;5.47;100.00
3668;BME280;24099;47.102;15.440;2023-03-23T00:50:21;96793.06;;;5.53;100.00
3668;BME280;24099;47.102;15.440;2023-03-23T00:52:49;96786.75;;;5.22;100.00
3668;BME280;24099;47.102;15.440;2023-03-23T00:55:24;96788.59;;;5.30;100.00
3668;BME280;24099;47.102;15.440;2023-03-23T00:57:53;96785.06;;;5.47;100.00
3668;BME280;24099;47.102;15.440;2023-03-23T01:00:21;96784.56;;;5.43;100.00
3668;BME280;24099;47.102;15.440;2023-03-23T01:02:50;96781.78;;;5.37;100.00
3668;BME280;24099;47.102;15.440;2023-03-23T01:05:21;96773.78;;;5.46;100.00
3668;BME280;24099;47.102;15.440;2023-03-23T01:07:49;96774.13;;;5.51;100.00
3668;BME280;24099;47.102;15.440;2023-03-23T01:10:17;96773.44;;;5.33;100.00
3668;BME280;24099;47.102;15.440;2023-03-23T01:12:47;96769.19;;;5.32;100.00
3668;BME280;24099;47.102;15.440;2023-03-23T01:15:17;96757.59;;;5.27;100.00
3668;BME280;24099;47.102;15.440;2023-03-23T01:17:46;96753.69;;;5.31;100.00
3668;BME280;24099;47.102;15.440;2023-03-23T01:20:15;96766.28;;;5.35;100.00
3668;BME280;24099;47.102;15.440;2023-03-23T01:22:44;96765.31;;;5.44;100.00
3668;BME280;24099;47.102;15.440;2023-03-23T01:25:13;96763.28;;;5.14;100.00
3668;BME280;24099;47.102;15.440;2023-03-23T01:27:42;96762.25;;;5.07;100.00
3668;BME280;24099;47.102;15.440;2023-03-23T01:30:12;96767.53;;;5.15;100.00
3668;BME280;24099;47.102;15.440;2023-03-23T01:32:40;96763.78;;;5.17;100.00
3668;BME280;24099;47.102;15.440;2023-03-23T01:35:08;96766.56;;;5.16;100.00
3668;BME280;24099;47.102;15.440;2023-03-23T01:37:37;96768.44;;;5.06;100.00
3668;BME280;24099;47.102;15.440;2023-03-23T01:40:09;96759.50;;;5.08;100.00
3668;BME280;24099;47.102;15.440;2023-03-23T01:42:40;96760.31;;;5.09;100.00
3668;BME280;24099;47.102;15.440;2023-03-23T01:45:28;96748.91;;;5.10;100.00
3668;BME280;24099;47.102;15.440;2023-03-23T01:48:00;96747.44;;;5.07;100.00
3668;BME280;24099;47.102;15.440;2023-03-23T01:50:33;96745.81;;;5.06;100.00
3668;BME280;24099;47.102;15.440;2023-03-23T01:53:05;96746.97;;;5.20;100.00
3668;BME280;24099;47.102;15.440;2023-03-23T01:55:41;96735.88;;;5.10;100.00
3668;BME280;24099;47.102;15.440;2023-03-23T01:58:11;96736.84;;;5.09;100.00
3668;BME280;24099;47.102;15.440;2023-03-23T02:00:41;96741.84;;;4.94;100.00
3668;BME280;24099;47.102;15.440;2023-03-23T02:03:10;96746.25;;;4.94;100.00
3668;BME280;24099;47.102;15.440;2023-03-23T02:05:42;96749.22;;;4.99;100.00
3668;BME280;24099;47.102;15.440;2023-03-23T02:08:16;96739.59;;;5.07;100.00
3668;BME280;24099;47.102;15.440;2023-03-23T02:10:47;96748.19;;;4.92;100.00
3668;BME280;24099;47.102;15.440;2023-03-23T02:13:16;96746.75;;;4.97;100.00
3668;BME280;24099;47.102;15.440;2023-03-23T02:15:49;96732.19;;;4.78;100.00
3668;BME280;24099;47.102;15.440;2023-03-23T02:18:45;96743.66;;;4.94;100.00
3668;BME280;24099;47.102;15.440;2023-03-23T02:21:56;96746.59;;;4.99;100.00
3668;BME280;24099;47.102;15.440;2023-03-23T02:24:56;96740.03;;;4.87;100.00
3668;BME280;24099;47.102;15.440;2023-03-23T02:30:43;96740.81;;;4.79;100.00
3668;BME280;24099;47.102;15.440;2023-03-23T02:33:39;96739.06;;;4.88;100.00
3668;BME280;24099;47.102;15.440;2023-03-23T02:36:19;96740.31;;;4.83;100.00
3668;BME280;24099;47.102;15.440;2023-03-23T02:38:56;96735.94;;;4.84;100.00
3668;BME280;24099;47.102;15.440;2023-03-23T02:41:30;96735.16;;;4.92;100.00
3668;BME280;24099;47.102;15.440;2023-03-23T02:44:03;96734.59;;;4.72;100.00
3668;BME280;24099;47.102;15.440;2023-03-23T02:46:33;96739.44;;;4.67;100.00
3668;BME280;24099;47.102;15.440;2023-03-23T02:49:08;96733.22;;;4.60;100.00
3668;BME280;24099;47.102;15.440;2023-03-23T02:51:37;96730.59;;;4.52;100.00
3668;BME280;24099;47.102;15.440;2023-03-23T02:54:06;96738.13;;;4.63;100.00
3668;BME280;24099;47.102;15.440;2023-03-23T02:56:35;96741.53;;;4.55;100.00
3668;BME280;24099;47.102;15.440;2023-03-23T02:59:10;96742.34;;;4.56;100.00
3668;BME280;24099;47.102;15.440;2023-03-23T03:01:58;96744.78;;;4.57;100.00
3668;BME280;24099;47.102;15.440;2023-03-23T03:04:33;96743.31;;;4.63;100.00
3668;BME280;24099;47.102;15.440;2023-03-23T03:10:07;96746.59;;;4.65;100.00
3668;BME280;24099;47.102;15.440;2023-03-23T03:12:46;96748.53;;;4.63;100.00
3668;BME280;24099;47.102;15.440;2023-03-23T03:15:23;96741.53;;;4.55;100.00
3668;BME280;24099;47.102;15.440;2023-03-23T03:17:59;96739.72;;;4.56;100.00
3668;BME280;24099;47.102;15.440;2023-03-23T03:20:32;96742.19;;;4.65;100.00
3668;BME280;24099;47.102;15.440;2023-03-23T03:23:04;96747.69;;;4.54;100.00
3668;BME280;24099;47.102;15.440;2023-03-23T03:25:35;96734.38;;;4.57;100.00
3668;BME280;24099;47.102;15.440;2023-03-23T03:28:05;96743.97;;;4.57;100.00
3668;BME280;24099;47.102;15.440;2023-03-23T03:30:43;96738.19;;;4.45;100.00
3668;BME280;24099;47.102;15.440;2023-03-23T03:33:13;96729.91;;;4.49;100.00
3668;BME280;24099;47.102;15.440;2023-03-23T03:35:45;96747.94;;;4.43;100.00
3668;BME280;24099;47.102;15.440;2023-03-23T03:38:14;96744.06;;;4.47;100.00
3668;BME280;24099;47.102;15.440;2023-03-23T03:40:42;96749.63;;;4.52;100.00
3668;BME280;24099;47.102;15.440;2023-03-23T03:43:10;96753.44;;;4.58;100.00
3668;BME280;24099;47.102;15.440;2023-03-23T03:45:38;96755.97;;;4.49;100.00
3668;BME280;24099;47.102;15.440;2023-03-23T03:48:07;96748.59;;;4.45;100.00
3668;BME280;24099;47.102;15.440;2023-03-23T03:50:35;96753.38;;;4.49;100.00
3668;BME280;24099;47.102;15.440;2023-03-23T03:53:05;96752.41;;;4.50;100.00
3668;BME280;24099;47.102;15.440;2023-03-23T03:55:34;96754.19;;;4.50;100.00
3668;BME280;24099;47.102;15.440;2023-03-23T03:58:08;96754.78;;;4.44;100.00
3668;BME280;24099;47.102;15.440;2023-03-23T04:00:54;96753.13;;;4.35;100.00
3668;BME280;24099;47.102;15.440;2023-03-23T04:03:29;96749.47;;;4.28;100.00
3668;BME280;24099;47.102;15.440;2023-03-23T04:06:20;96754.59;;;4.37;100.00
3668;BME280;24099;47.102;15.440;2023-03-23T04:08:49;96751.28;;;4.27;100.00
3668;BME280;24099;47.102;15.440;2023-03-23T04:11:17;96757.38;;;4.36;100.00
3668;BME280;24099;47.102;15.440;2023-03-23T04:13:46;96762.28;;;4.39;100.00
3668;BME280;24099;47.102;15.440;2023-03-23T04:16:21;96758.19;;;4.36;100.00
3668;BME280;24099;47.102;15.440;2023-03-23T04:18:49;96758.34;;;4.35;100.00
3668;BME280;24099;47.102;15.440;2023-03-23T04:21:18;96760.78;;;4.36;100.00
3668;BME280;24099;47.102;15.440;2023-03-23T04:23:50;96766.91;;;4.27;100.00
3668;BME280;24099;47.102;15.440;2023-03-23T04:26:20;96762.13;;;4.23;100.00
3668;BME280;24099;47.102;15.440;2023-03-23T04:28:50;96760.09;;;4.08;100.00
3668;BME280;24099;47.102;15.440;2023-03-23T04:31:33;96759.66;;;4.13;100.00
3668;BME280;24099;47.102;15.440;2023-03-23T04:34:13;96762.06;;;4.32;100.00
3668;BME280;24099;47.102;15.440;2023-03-23T04:36:46;96767.78;;;4.36;100.00
3668;BME280;24099;47.102;15.440;2023-03-23T04:39:26;96762.56;;;4.36;100.00
3668;BME280;24099;47.102;15.440;2023-03-23T04:42:04;96765.72;;;4.22;100.00
3668;BME280;24099;47.102;15.440;2023-03-23T04:45:01;96777.03;;;4.30;100.00
3668;BME280;24099;47.102;15.440;2023-03-23T04:47:39;96771.88;;;4.38;100.00
3668;BME280;24099;47.102;15.440;2023-03-23T04:50:19;96771.44;;;4.25;100.00
3668;BME280;24099;47.102;15.440;2023-03-23T04:52:47;96772.13;;;4.27;100.00
3668;BME280;24099;47.102;15.440;2023-03-23T04:55:24;96775.91;;;4.33;100.00
3668;BME280;24099;47.102;15.440;2023-03-23T04:57:58;96774.13;;;4.33;100.00
3668;BME280;24099;47.102;15.440;2023-03-23T05:00:57;96769.41;;;4.37;100.00
3668;BME280;24099;47.102;15.440;2023-03-23T05:03:26;96770.38;;;4.36;100.00
3668;BME280;24099;47.102;15.440;2023-03-23T05:05:57;96774.81;;;4.43;100.00
3668;BME280;24099;47.102;15.440;2023-03-23T05:08:28;96773.69;;;4.46;100.00
3668;BME280;24099;47.102;15.440;2023-03-23T05:11:01;96773.84;;;4.44;100.00
3668;BME280;24099;47.102;15.440;2023-03-23T05:13:35;96773.44;;;4.57;100.00
3668;BME280;24099;47.102;15.440;2023-03-23T05:16:08;96776.72;;;4.59;100.00
3668;BME280;24099;47.102;15.440;2023-03-23T05:18:40;96781.75;;;4.61;100.00
3668;BME280;24099;47.102;15.440;2023-03-23T05:21:13;96781.88;;;4.51;100.00
3668;BME280;24099;47.102;15.440;2023-03-23T05:23:48;96781.44;;;4.56;100.00
3668;BME280;24099;47.102;15.440;2023-03-23T05:26:26;96795.44;;;4.63;100.00
3668;BME280;24099;47.102;15.440;2023-03-23T05:29:11;96790.16;;;4.72;100.00
3668;BME280;24099;47.102;15.440;2023-03-23T05:31:58;96785.75;;;4.73;100.00
3668;BME280;24099;47.102;15.440;2023-03-23T05:34:35;96793.19;;;4.94;100.00
3668;BME280;24099;47.102;15.440;2023-03-23T05:37:05;96798.63;;;4.74;100.00
3668;BME280;24099;47.102;15.440;2023-03-23T05:40:10;96799.78;;;4.80;100.00
3668;BME280;24099;47.102;15.440;2023-03-23T05:43:01;96804.22;;;4.79;100.00
3668;BME280;24099;47.102;15.440;2023-03-23T05:45:41;96808.13;;;4.83;100.00
3668;BME280;24099;47.102;15.440;2023-03-23T05:48:23;96807.00;;;4.86;100.00
3668;BME280;24099;47.102;15.440;2023-03-23T05:50:53;96810.63;;;4.93;100.00
3668;BME280;24099;47.102;15.440;2023-03-23T05:53:29;96808.19;;;5.00;100.00
3668;BME280;24099;47.102;15.440;2023-03-23T05:56:02;96817.69;;;5.09;100.00
3668;BME280;24099;47.102;15.440;2023-03-23T05:59:01;96820.84;;;5.20;100.00
3668;BME280;24099;47.102;15.440;2023-03-23T06:01:36;96822.66;;;5.28;100.00
3668;BME280;24099;47.102;15.440;2023-03-23T06:04:07;96827.28;;;5.34;100.00
3668;BME280;24099;47.102;15.440;2023-03-23T06:06:56;96829.56;;;5.37;100.00
3668;BME280;24099;47.102;15.440;2023-03-23T06:09:26;96825.06;;;5.56;100.00
3668;BME280;24099;47.102;15.440;2023-03-23T06:12:33;96834.84;;;5.62;100.00
3668;BME280;24099;47.102;15.440;2023-03-23T06:15:24;96835.53;;;5.72;100.00
3668;BME280;24099;47.102;15.440;2023-03-23T06:18:18;96827.88;;;5.86;100.00
3668;BME280;24099;47.102;15.440;2023-03-23T06:21:19;96837.72;;;5.93;100.00
3668;BME280;24099;47.102;15.440;2023-03-23T06:23:56;96837.41;;;6.04;100.00
3668;BME280;24099;47.102;15.440;2023-03-23T06:26:32;96837.75;;;6.17;100.00
3668;BME280;24099;47.102;15.440;2023-03-23T06:29:06;96840.19;;;6.27;100.00
3668;BME280;24099;47.102;15.440;2023-03-23T06:31:46;96840.19;;;6.43;100.00
3668;BME280;24099;47.102;15.440;2023-03-23T06:34:15;96838.56;;;6.42;100.00
3668;BME280;24099;47.102;15.440;2023-03-23T06:37:02;96838.72;;;6.48;100.00
3668;BME280;24099;47.102;15.440;2023-03-23T06:39:35;96837.88;;;6.64;100.00
3668;BME280;24099;47.102;15.440;2023-03-23T06:42:23;96841.47;;;6.79;100.00
3668;BME280;24099;47.102;15.440;2023-03-23T06:45:11;96840.47;;;6.88;100.00
3668;BME280;24099;47.102;15.440;2023-03-23T06:47:50;96834.56;;;6.95;100.00
3668;BME280;24099;47.102;15.440;2023-03-23T06:50:21;96833.88;;;7.09;100.00
3668;BME280;24099;47.102;15.440;2023-03-23T06:52:52;96828.09;;;7.21;100.00
3668;BME280;24099;47.102;15.440;2023-03-23T06:55:21;96826.44;;;7.29;100.00
3668;BME280;24099;47.102;15.440;2023-03-23T06:57:49;96828.81;;;7.46;100.00
3668;BME280;24099;47.102;15.440;2023-03-23T07:00:17;96833.31;;;7.60;100.00
3668;BME280;24099;47.102;15.440;2023-03-23T07:02:48;96837.16;;;7.81;100.00
3668;BME280;24099;47.102;15.440;2023-03-23T07:05:16;96832.88;;;8.11;100.00
3668;BME280;24099;47.102;15.440;2023-03-23T07:07:49;96824.06;;;8.26;100.00
3668;BME280;24099;47.102;15.440;2023-03-23T07:10:30;96812.72;;;8.57;100.00
3668;BME280;24099;47.102;15.440;2023-03-23T07:13:04;96803.75;;;8.81;100.00
3668;BME280;24099;47.102;15.440;2023-03-23T07:15:47;96791.91;;;8.99;100.00
3668;BME280;24099;47.102;15.440;2023-03-23T07:18:19;96788.94;;;9.03;100.00
3668;BME280;24099;47.102;15.440;2023-03-23T07:20:49;96780.06;;;9.18;100.00
3668;BME280;24099;47.102;15.440;2023-03-23T07:23:19;96778.41;;;9.32;100.00
3668;BME280;24099;47.102;15.440;2023-03-23T07:26:01;96774.31;;;9.44;100.00
3668;BME280;24099;47.102;15.440;2023-03-23T07:28:39;96773.72;;;9.63;100.00
3668;BME280;24099;47.102;15.440;2023-03-23T07:31:20;96767.19;;;9.74;100.00
3668;BME280;24099;47.102;15.440;2023-03-23T07:33:54;96769.44;;;9.98;100.00
3668;BME280;24099;47.102;15.440;2023-03-23T07:36:27;96769.50;;;10.26;100.00
3668;BME280;24099;47.102;15.440;2023-03-23T07:39:11;96759.97;;;10.47;100.00
3668;BME280;24099;47.102;15.440;2023-03-23T07:42:02;96753.88;;;10.46;100.00
3668;BME280;24099;47.102;15.440;2023-03-23T07:44:51;96763.13;;;10.63;100.00
3668;BME280;24099;47.102;15.440;2023-03-23T07:47:19;96750.47;;;10.80;100.00
3668;BME280;24099;47.102;15.440;2023-03-23T07:49:50;96746.75;;;11.02;100.00
3668;BME280;24099;47.102;15.440;2023-03-23T07:52:31;96748.25;;;11.18;100.00
3668;BME280;24099;47.102;15.440;2023-03-23T07:55:03;96750.47;;;11.21;100.00
3668;BME280;24099;47.102;15.440;2023-03-23T07:58:04;96748.66;;;11.22;100.00
3668;BME280;24099;47.102;15.440;2023-03-23T08:00:38;96750.13;;;11.31;100.00
3668;BME280;24099;47.102;15.440;2023-03-23T08:03:13;96753.25;;;11.54;100.00
3668;BME280;24099;47.102;15.440;2023-03-23T08:06:12;96749.41;;;11.63;100.00
3668;BME280;24099;47.102;15.440;2023-03-23T08:09:09;96746.44;;;11.80;100.00
3668;BME280;24099;47.102;15.440;2023-03-23T08:12:11;96747.28;;;11.93;100.00
3668;BME280;24099;47.102;15.440;2023-03-23T08:15:00;96747.91;;;12.02;100.00
3668;BME280;24099;47.102;15.440;2023-03-23T08:17:59;96746.47;;;12.19;100.00
3668;BME280;24099;47.102;15.440;2023-03-23T08:20:47;96738.59;;;12.52;100.00
3668;BME280;24099;47.102;15.440;2023-03-23T08:23:36;96730.06;;;12.43;100.00
3668;BME280;24099;47.102;15.440;2023-03-23T08:26:10;96728.19;;;12.64;100.00
3668;BME280;24099;47.102;15.440;2023-03-23T08:28:59;96730.84;;;12.64;100.00
3668;BME280;24099;47.102;15.440;2023-03-23T08:32:00;96728.00;;;12.72;100.00
3668;BME280;24099;47.102;15.440;2023-03-23T08:34:42;96723.28;;;12.87;100.00
3668;BME280;24099;47.102;15.440;2023-03-23T08:37:34;96721.81;;;13.18;100.00
3668;BME280;24099;47.102;15.440;2023-03-23T08:40:48;96728.06;;;13.30;100.00
3668;BME280;24099;47.102;15.440;2023-03-23T08:43:34;96731.31;;;13.25;100.00
3668;BME280;24099;47.102;15.440;2023-03-23T08:46:24;96729.44;;;13.39;100.00
3668;BME280;24099;47.102;15.440;2023-03-23T08:49:28;96727.75;;;13.51;100.00
3668;BME280;24099;47.102;15.440;2023-03-23T08:52:25;96731.19;;;13.58;100.00
3668;BME280;24099;47.102;15.440;2023-03-23T08:55:22;96734.59;;;13.65;100.00
3668;BME280;24099;47.102;15.440;2023-03-23T08:58:18;96733.53;;;13.73;100.00
3668;BME280;24099;47.102;15.440;2023-03-23T09:01:08;96733.41;;;13.93;100.00
3668;BME280;24099;47.102;15.440;2023-03-23T09:03:43;96734.16;;;14.00;100.00
3668;BME280;24099;47.102;15.440;2023-03-23T09:06:42;96730.63;;;14.12;100.00
3668;BME280;24099;47.102;15.440;2023-03-23T09:09:22;96734.59;;;14.28;100.00
3668;BME280;24099;47.102;15.440;2023-03-23T09:11:55;96733.88;;;14.39;100.00
3668;BME280;24099;47.102;15.440;2023-03-23T09:17:21;96733.19;;;14.75;100.00
3668;BME280;24099;47.102;15.440;2023-03-23T09:19:49;96728.56;;;14.89;100.00
3668;BME280;24099;47.102;15.440;2023-03-23T09:22:17;96725.69;;;15.27;100.00
3668;BME280;24099;47.102;15.440;2023-03-23T09:24:52;96718.19;;;15.06;100.00
3668;BME280;24099;47.102;15.440;2023-03-23T09:27:19;96724.28;;;15.06;100.00
3668;BME280;24099;47.102;15.440;2023-03-23T09:29:49;96722.66;;;15.24;100.00
3668;BME280;24099;47.102;15.440;2023-03-23T09:32:17;96716.09;;;15.44;100.00
3668;BME280;24099;47.102;15.440;2023-03-23T09:34:53;96718.44;;;15.52;100.00
3668;BME280;24099;47.102;15.440;2023-03-23T09:37:23;96712.69;;;15.74;100.00
3668;BME280;24099;47.102;15.440;2023-03-23T09:39:50;96716.03;;;15.81;100.00
3668;BME280;24099;47.102;15.440;2023-03-23T09:42:35;96717.72;;;15.94;100.00
3668;BME280;24099;47.102;15.440;2023-03-23T09:45:23;96711.00;;;16.56;100.00
3668;BME280;24099;47.102;15.440;2023-03-23T09:48:07;96700.13;;;16.58;100.00
3668;BME280;24099;47.102;15.440;2023-03-23T09:50:43;96693.53;;;16.60;98.70
3668;BME280;24099;47.102;15.440;2023-03-23T09:53:16;96691.66;;;17.07;96.10
3668;BME280;24099;47.102;15.440;2023-03-23T09:55:50;96690.34;;;17.62;90.44
3668;BME280;24099;47.102;15.440;2023-03-23T09:58:22;96686.78;;;17.84;86.38
3668;BME280;24099;47.102;15.440;2023-03-23T10:00:58;96683.88;;;17.69;86.97
3668;BME280;24099;47.102;15.440;2023-03-23T10:03:33;96687.22;;;17.25;83.73
3668;BME280;24099;47.102;15.440;2023-03-23T10:06:07;96685.75;;;18.19;85.10
3668;BME280;24099;47.102;15.440;2023-03-23T10:08:35;96680.22;;;18.37;82.63
3668;BME280;24099;47.102;15.440;2023-03-23T10:11:11;96682.63;;;18.39;80.90
3668;BME280;24099;47.102;15.440;2023-03-23T10:14:04;96676.44;;;17.71;81.86
3668;BME280;24099;47.102;15.440;2023-03-23T10:16:40;96660.94;;;18.13;83.40
3668;BME280;24099;47.102;15.440;2023-03-23T10:19:12;96666.47;;;18.62;79.41
3668;BME280;24099;47.102;15.440;2023-03-23T10:21:51;96653.19;;;19.06;77.06
3668;BME280;24099;47.102;15.440;2023-03-23T10:24:23;96645.44;;;19.26;77.46
3668;BME280;24099;47.102;15.440;2023-03-23T10:26:59;96646.31;;;19.32;75.92
3668;BME280;24099;47.102;15.440;2023-03-23T10:29:36;96641.72;;;19.76;75.34
3668;BME280;24099;47.102;15.440;2023-03-23T10:32:13;96648.31;;;18.98;75.50
3668;BME280;24099;47.102;15.440;2023-03-23T10:34:45;96647.75;;;19.66;73.24
3668;BME280;24099;47.102;15.440;2023-03-23T10:37:20;96648.88;;;20.02;72.36
3668;BME280;24099;47.102;15.440;2023-03-23T10:39:53;96643.97;;;20.53;70.73
3668;BME280;24099;47.102;15.440;2023-03-23T10:42:26;96642.94;;;20.27;70.88
3668;BME280;24099;47.102;15.440;2023-03-23T10:44:56;96637.91;;;20.68;68.20
3668;BME280;24099;47.102;15.440;2023-03-23T10:47:27;96631.22;;;20.70;67.75
3668;BME280;24099;47.102;15.440;2023-03-23T10:50:12;96634.16;;;20.69;68.32
3668;BME280;24099;47.102;15.440;2023-03-23T10:52:44;96628.69;;;21.01;66.63
3668;BME280;24099;47.102;15.440;2023-03-23T10:55:15;96624.41;;;20.99;65.41
3668;BME280;24099;47.102;15.440;2023-03-23T10:57:45;96626.00;;;21.01;64.56
3668;BME280;24099;47.102;15.440;2023-03-23T11:00:20;96624.41;;;21.77;63.93
3668;BME280;24099;47.102;15.440;2023-03-23T11:03:04;96621.13;;;20.87;65.29
3668;BME280;24099;47.102;15.440;2023-03-23T11:05:37;96624.31;;;21.37;63.83
3668;BME280;24099;47.102;15.440;2023-03-23T11:08:12;96620.19;;;21.19;63.08
3668;BME280;24099;47.102;15.440;2023-03-23T11:10:47;96625.81;;;21.12;64.00
3668;BME280;24099;47.102;15.440;2023-03-23T11:13:27;96623.84;;;21.70;67.04
3668;BME280;24099;47.102;15.440;2023-03-23T11:15:56;96623.28;;;21.53;62.67
3668;BME280;24099;47.102;15.440;2023-03-23T11:18:27;96629.50;;;21.94;62.62
3668;BME280;24099;47.102;15.440;2023-03-23T11:21:03;96629.78;;;22.08;61.21
3668;BME280;24099;47.102;15.440;2023-03-23T11:23:34;96619.53;;;21.79;61.60
3668;BME280;24099;47.102;15.440;2023-03-23T11:26:12;96628.66;;;21.73;62.88
3668;BME280;24099;47.102;15.440;2023-03-23T11:28:59;96631.81;;;21.45;62.35
3668;BME280;24099;47.102;15.440;2023-03-23T11:31:40;96629.22;;;21.03;62.65
3668;BME280;24099;47.102;15.440;2023-03-23T11:34:19;96618.72;;;20.86;64.18
3668;BME280;24099;47.102;15.440;2023-03-23T11:36:50;96620.50;;;21.22;62.37
3668;BME280;24099;47.102;15.440;2023-03-23T11:39:47;96622.53;;;20.48;65.41
3668;BME280;24099;47.102;15.440;2023-03-23T11:42:21;96625.75;;;20.97;65.67
3668;BME280;24099;47.102;15.440;2023-03-23T11:44:51;96622.66;;;20.68;63.61
3668;BME280;24099;47.102;15.440;2023-03-23T11:47:24;96624.25;;;20.69;63.95
3668;BME280;24099;47.102;15.440;2023-03-23T11:50:04;96617.91;;;20.85;64.91
3668;BME280;24099;47.102;15.440;2023-03-23T11:52:43;96612.22;;;21.29;63.44
3668;BME280;24099;47.102;15.440;2023-03-23T11:55:17;96610.41;;;21.50;62.47
3668;BME280;24099;47.102;15.440;2023-03-23T11:57:47;96608.50;;;21.40;62.97
3668;BME280;24099;47.102;15.440;2023-03-23T12:00:17;96613.53;;;21.21;62.29
3668;BME280;24099;47.102;15.440;2023-03-23T12:06:01;96617.16;;;21.88;61.28
3668;BME280;24099;47.102;15.440;2023-03-23T12:08:53;96613.38;;;21.79;61.33
3668;BME280;24099;47.102;15.440;2023-03-23T12:11:39;96615.25;;;21.68;62.27
3668;BME280;24099;47.102;15.440;2023-03-23T12:14:20;96613.34;;;21.58;61.35
3668;BME280;24099;47.102;15.440;2023-03-23T12:17:01;96601.25;;;21.25;62.86
3668;BME280;24099;47.102;15.440;2023-03-23T12:19:42;96602.25;;;21.14;61.97
3668;BME280;24099;47.102;15.440;2023-03-23T12:22:24;96601.22;;;20.63;62.69
3668;BME280;24099;47.102;15.440;2023-03-23T12:25:05;96602.66;;;21.63;63.11
3668;BME280;24099;47.102;15.440;2023-03-23T12:27:44;96599.69;;;21.50;62.06
3668;BME280;24099;47.102;15.440;2023-03-23T12:30:29;96597.25;;;21.43;62.02
3668;BME280;24099;47.102;15.440;2023-03-23T12:33:09;96592.75;;;21.64;61.21
3668;BME280;24099;47.102;15.440;2023-03-23T12:35:53;96590.84;;;21.34;61.87
3668;BME280;24099;47.102;15.440;2023-03-23T12:38:42;96594.34;;;21.65;62.22
3668;BME280;24099;47.102;15.440;2023-03-23T12:41:22;96591.16;;;21.73;60.72
3668;BME280;24099;47.102;15.440;2023-03-23T12:43:57;96599.09;;;21.22;62.08
3668;BME280;24099;47.102;15.440;2023-03-23T12:46:51;96583.25;;;21.16;61.85
3668;BME280;24099;47.102;15.440;2023-03-23T12:49:26;96571.59;;;21.52;62.27
3668;BME280;24099;47.102;15.440;2023-03-23T12:51:59;96571.31;;;21.54;61.41
3668;BME280;24099;47.102;15.440;2023-03-23T12:55:00;96567.03;;;21.48;60.92
3668;BME280;24099;47.102;15.440;2023-03-23T12:57:34;96568.09;;;21.37;62.58
3668;BME280;24099;47.102;15.440;2023-03-23T13:00:14;96561.56;;;21.07;63.33
3668;BME280;24099;47.102;15.440;2023-03-23T13:02:54;96551.41;;;21.19;62.61
3668;BME280;24099;47.102;15.440;2023-03-23T13:05:41;96549.94;;;20.76;65.22
3668;BME280;24099;47.102;15.440;2023-03-23T13:08:14;96547.66;;;20.48;64.63
3668;BME280;24099;47.102;15.440;2023-03-23T13:10:47;96554.94;;;20.62;67.07
3668;BME280;24099;47.102;15.440;2023-03-23T13:13:19;96547.28;;;20.81;64.61
3668;BME280;24099;47.102;15.440;2023-03-23T13:16:02;96547.44;;;21.27;65.09
3668;BME280;24099;47.102;15.440;2023-03-23T13:18:42;96544.59;;;20.81;66.37
3668;BME280;24099;47.102;15.440;2023-03-23T13:21:19;96538.00;;;21.09;64.59
3668;BME280;24099;47.102;15.440;2023-03-23T13:23:53;96531.69;;;20.58;65.23
3668;BME280;24099;47.102;15.440;2023-03-23T13:26:28;96535.50;;;20.82;65.10
3668;BME280;24099;47.102;15.440;2023-03-23T13:29:13;96526.59;;;20.61;65.89
3668;BME280;24099;47.102;15.440;2023-03-23T13:31:49;96529.09;;;20.78;67.15
3668;BME280;24099;47.102;15.440;2023-03-23T13:34:21;96518.91;;;20.80;66.66
3668;BME280;24099;47.102;15.440;2023-03-23T13:36:55;96511.53;;;21.13;66.34
3668;BME280;24099;47.102;15.440;2023-03-23T13:39:26;96514.38;;;20.86;64.79
3668;BME280;24099;47.102;15.440;2023-03-23T13:42:24;96518.75;;;21.17;65.19
3668;BME280;24099;47.102;15.440;2023-03-23T13:45:15;96503.75;;;21.11;63.96
3668;BME280;24099;47.102;15.440;2023-03-23T13:47:46;96526.25;;;21.10;67.41
3668;BME280;24099;47.102;15.440;2023-03-23T13:50:29;96520.00;;;20.84;65.24
3668;BME280;24099;47.102;15.440;2023-03-23T13:53:23;96520.91;;;21.15;65.28
3668;BME280;24099;47.102;15.440;2023-03-23T13:56:13;96517.88;;;20.86;64.76
3668;BME280;24099;47.102;15.440;2023-03-23T13:58:48;96519.47;;;20.87;65.64
3668;BME280;24099;47.102;15.440;2023-03-23T14:01:38;96530.56;;;21.26;64.75